Terminal Aerodrome Forecast
Issued by NWS

Home | Current Version | Previous Version | Text Only | Print | Product List | Glossary On
Versions: 1 2 3 4 5 6 7 8 9 10 11 12 13
426
FTUS42 TJSJ 211135
TAFJBQ
TAF
TJBQ 211135Z 2112/2212 VRB04KT P6SM FEW030 SCT070
     FM211400 05005KT P6SM FEW030 FEW070
     FM212300 06004KT P6SM SCT025=

USA.gov is the U.S. government's official web portal to all federal, state and local government web resources and services.